Terminal Aerodrome Forecast
Issued by NWS Wilmington, OH

Home | Current Version | Previous Version | Text Only | Print | Product List | Glossary On
Versions: 1 2 3 4 5 6 7 8 9 10 11 12 13 14 15 16 17 18 19 20 21 22
000
FTUS41 KILN 050536
TAFILN
TAF
KILN 050536Z 0506/0606 VRB03KT P6SM BKN100
      TEMPO 0510/0512 5SM BR
     FM051300 17005KT P6SM SCT040
     FM051900 13007KT P6SM VCTS BKN050CB
     FM060100 14005KT P6SM SCT060 BKN120=

USA.gov is the U.S. government's official web portal to all federal, state and local government web resources and services.